createdAt,value
2023-05-02T00:00:11.114Z,6.92
2023-05-02T00:00:26.573Z,7.08
2023-05-02T00:00:58.043Z,7.08
2023-05-02T00:01:29.402Z,7.24
2023-05-02T00:02:01.802Z,7.24
2023-05-02T00:02:33.520Z,7.24
2023-05-02T00:03:06.599Z,7.24
2023-05-02T00:03:37.744Z,7.24
2023-05-02T00:04:10.404Z,7.24
2023-05-02T00:04:26.593Z,7.24
2023-05-02T00:04:57.614Z,7.24
2023-05-02T00:05:30.068Z,7.24
2023-05-02T00:06:01.887Z,7.24
2023-05-02T00:06:33.740Z,7.24
2023-05-02T00:07:06.374Z,7.24
2023-05-02T00:07:37.853Z,7.24
2023-05-02T00:08:09.541Z,7.24
2023-05-02T00:08:26.406Z,7.24
2023-05-02T00:08:57.545Z,7.24
2023-05-02T00:09:29.400Z,7.24
2023-05-02T00:10:03.342Z,7.24
2023-05-02T00:10:33.453Z,7.24
2023-05-02T00:11:06.280Z,7.24
2023-05-02T00:11:37.614Z,7.24
2023-05-02T00:12:09.521Z,7.24
2023-05-02T00:12:26.349Z,7.24
2023-05-02T00:12:57.589Z,7.08
2023-05-02T00:13:29.527Z,7.08
2023-05-02T00:13:46.441Z,7.08
2023-05-02T00:14:17.764Z,7.24
2023-05-02T00:14:39.346Z,7.24
2023-05-02T00:15:07.805Z,7.24
2023-05-02T00:15:38.161Z,7.24
2023-05-02T00:16:09.554Z,7.24
2023-05-02T00:16:26.591Z,7.24
2023-05-02T00:16:57.701Z,7.24
2023-05-02T00:17:29.651Z,7.24
2023-05-02T00:17:46.248Z,7.24
2023-05-02T00:18:17.786Z,7.24
2023-05-02T00:18:39.437Z,7.24
2023-05-02T00:19:06.418Z,7.24
2023-05-02T00:19:37.726Z,7.24
2023-05-02T00:20:09.928Z,7.24
2023-05-02T00:20:26.414Z,7.24
2023-05-02T00:20:57.952Z,7.24
2023-05-02T00:21:29.468Z,7.24
2023-05-02T00:22:01.874Z,7.24
2023-05-02T00:22:33.477Z,7.24
2023-05-02T00:23:06.388Z,7.24
2023-05-02T00:23:37.669Z,7.24
2023-05-02T00:24:09.583Z,7.24
2023-05-02T00:24:26.424Z,7.24
2023-05-02T00:24:57.525Z,7.24
2023-05-02T00:25:29.866Z,7.24
2023-05-02T00:26:02.003Z,7.24
2023-05-02T00:26:33.451Z,7.24
2023-05-02T00:27:06.410Z,7.24
2023-05-02T00:27:37.578Z,7.24
2023-05-02T00:28:09.459Z,7.24
2023-05-02T00:28:26.471Z,7.24
2023-05-02T00:28:57.525Z,7.24
2023-05-02T00:29:29.526Z,7.24
2023-05-02T00:30:03.977Z,7.24
2023-05-02T00:30:33.667Z,7.24
2023-05-02T00:31:06.482Z,7.24
2023-05-02T00:31:37.907Z,7.24
2023-05-02T00:32:09.562Z,7.24
2023-05-02T00:32:26.668Z,7.24
2023-05-02T00:32:57.651Z,7.24
2023-05-02T00:33:29.506Z,7.24
2023-05-02T00:34:01.899Z,7.24
2023-05-02T00:34:33.443Z,7.24
2023-05-02T00:35:07.325Z,7.24
2023-05-02T00:35:37.692Z,7.24
2023-05-02T00:36:09.487Z,7.24
2023-05-02T00:36:27.275Z,7.24
2023-05-02T00:36:57.612Z,7.24
2023-05-02T00:37:29.549Z,7.24
2023-05-02T00:38:01.918Z,7.24
2023-05-02T00:38:33.456Z,7.24
2023-05-02T00:39:06.276Z,7.24
2023-05-02T00:39:37.660Z,7.24
2023-05-02T00:40:09.991Z,7.24
2023-05-02T00:40:26.763Z,7.24
2023-05-02T00:40:58.172Z,7.24
2023-05-02T00:41:29.850Z,7.24
2023-05-02T00:42:01.887Z,7.24
2023-05-02T00:42:33.531Z,7.24
2023-05-02T00:43:07.572Z,7.24
2023-05-02T00:43:37.640Z,7.24
2023-05-02T00:44:09.576Z,7.24
2023-05-02T00:44:26.348Z,7.24
2023-05-02T00:44:57.505Z,7.24
2023-05-02T00:45:30.835Z,7.24
2023-05-02T00:46:01.846Z,7.24
2023-05-02T00:46:33.725Z,7.24
2023-05-02T00:47:06.313Z,7.24
2023-05-02T00:47:37.607Z,7.24
2023-05-02T00:48:09.756Z,7.08
2023-05-02T00:48:26.410Z,7.08
2023-05-02T00:48:57.637Z,6.68
2023-05-02T00:49:29.587Z,6.27
2023-05-02T00:50:02.935Z,6.11
2023-05-02T00:50:33.918Z,6.11
2023-05-02T00:51:06.433Z,6.11
2023-05-02T00:51:37.660Z,6.11
2023-05-02T00:52:09.522Z,5.79
2023-05-02T00:52:26.465Z,5.47
2023-05-02T00:52:57.645Z,5.47
2023-05-02T00:53:29.575Z,5.47
2023-05-02T00:54:01.709Z,5.47
2023-05-02T00:54:34.037Z,5.47
2023-05-02T00:55:07.118Z,5.47
2023-05-02T00:55:37.551Z,5.47
2023-05-02T00:56:09.410Z,5.47
2023-05-02T00:56:26.569Z,5.47
2023-05-02T00:56:57.715Z,5.47
2023-05-02T00:57:29.384Z,5.47
2023-05-02T00:58:01.677Z,5.47
2023-05-02T00:58:33.396Z,5.79
2023-05-02T00:59:06.257Z,6.27
2023-05-02T00:59:37.933Z,6.84
2023-05-02T01:00:10.956Z,7.24
2023-05-02T01:00:27.889Z,7.24
2023-05-02T01:00:58.059Z,7.24
2023-05-02T01:01:29.592Z,7.24
2023-05-02T01:02:01.857Z,7.24
2023-05-02T01:02:33.591Z,7.24
2023-05-02T01:03:06.518Z,7.24
2023-05-02T01:03:37.793Z,7.24
2023-05-02T01:04:09.795Z,7.24
2023-05-02T01:04:26.562Z,7.24
2023-05-02T01:04:57.621Z,7.24
2023-05-02T01:05:30.057Z,7.24
2023-05-02T01:06:01.885Z,7.24
2023-05-02T01:06:33.599Z,7.24
2023-05-02T01:07:06.317Z,7.24
2023-05-02T01:07:37.909Z,7.24
2023-05-02T01:08:09.442Z,7.24
2023-05-02T01:08:26.308Z,7.24
2023-05-02T01:08:57.666Z,7.24
2023-05-02T01:09:29.459Z,7.40
2023-05-02T01:10:03.132Z,7.56
2023-05-02T01:10:33.596Z,7.56
2023-05-02T01:11:06.431Z,7.72
2023-05-02T01:11:37.682Z,7.88
2023-05-02T01:12:09.643Z,8.04
2023-05-02T01:12:26.412Z,8.45
2023-05-02T01:12:57.589Z,8.69
2023-05-02T01:13:29.463Z,8.69
2023-05-02T01:14:01.865Z,8.69
2023-05-02T01:14:33.508Z,8.69
2023-05-02T01:15:07.768Z,8.69
2023-05-02T01:15:37.782Z,8.85
2023-05-02T01:16:09.503Z,8.85
2023-05-02T01:16:26.629Z,8.85
2023-05-02T01:16:57.630Z,8.85
2023-05-02T01:17:29.546Z,8.85
2023-05-02T01:18:01.986Z,8.85
2023-05-02T01:18:33.492Z,8.85
2023-05-02T01:19:06.492Z,8.85
2023-05-02T01:19:37.733Z,8.69
2023-05-02T01:20:10.289Z,8.69
2023-05-02T01:20:26.438Z,8.69
2023-05-02T01:20:57.922Z,8.69
2023-05-02T01:21:29.444Z,8.69
2023-05-02T01:22:01.755Z,8.45
2023-05-02T01:22:33.619Z,8.20
2023-05-02T01:23:06.498Z,8.20
2023-05-02T01:23:37.651Z,8.04
2023-05-02T01:24:09.585Z,7.88
2023-05-02T01:24:26.447Z,7.88
2023-05-02T01:24:57.763Z,7.72
2023-05-02T01:25:29.904Z,7.40
2023-05-02T01:26:01.751Z,7.24
2023-05-02T01:26:33.537Z,7.24
2023-05-02T01:27:06.441Z,7.24
2023-05-02T01:27:37.655Z,7.24
2023-05-02T01:28:09.518Z,7.24
2023-05-02T01:28:26.876Z,7.24
2023-05-02T01:28:57.619Z,7.24
2023-05-02T01:29:29.461Z,7.24
2023-05-02T01:29:46.837Z,7.24
2023-05-02T01:30:18.625Z,7.24
2023-05-02T01:30:39.022Z,7.24
2023-05-02T01:31:06.541Z,7.08
2023-05-02T01:31:37.762Z,7.08
2023-05-02T01:32:09.551Z,7.08
2023-05-02T01:32:26.361Z,6.92
2023-05-02T01:32:57.728Z,6.92
2023-05-02T01:33:29.388Z,6.68
2023-05-02T01:34:01.746Z,6.68
2023-05-02T01:34:33.612Z,6.43
2023-05-02T01:35:07.186Z,6.43
2023-05-02T01:35:37.578Z,6.43
2023-05-02T01:36:09.509Z,6.43
2023-05-02T01:36:26.370Z,6.27
2023-05-02T01:36:57.603Z,6.27
2023-05-02T01:37:29.431Z,6.11
2023-05-02T01:37:46.732Z,6.11
2023-05-02T01:38:17.667Z,6.11
2023-05-02T01:38:39.156Z,6.11
2023-05-02T01:39:06.373Z,6.11
2023-05-02T01:39:37.612Z,6.11
2023-05-02T01:40:10.057Z,6.11
2023-05-02T01:40:26.631Z,6.11
2023-05-02T01:40:57.942Z,6.11
2023-05-02T01:41:29.446Z,6.11
2023-05-02T01:41:46.560Z,6.11
2023-05-02T01:42:17.679Z,6.11
2023-05-02T01:42:39.046Z,6.11
2023-05-02T01:43:06.514Z,6.11
2023-05-02T01:43:38.715Z,6.11
2023-05-02T01:44:09.720Z,6.11
2023-05-02T01:44:26.455Z,6.11
2023-05-02T01:44:58.114Z,6.11
2023-05-02T01:45:30.381Z,5.95
2023-05-02T01:45:46.640Z,6.11
2023-05-02T01:46:17.557Z,6.11
2023-05-02T01:46:39.363Z,6.11
2023-05-02T01:47:06.384Z,6.11
2023-05-02T01:47:37.695Z,6.11
2023-05-02T01:48:09.733Z,6.11
2023-05-02T01:48:26.429Z,6.11
2023-05-02T01:48:57.951Z,6.11
2023-05-02T01:49:29.457Z,6.11
2023-05-02T01:49:46.609Z,6.11
2023-05-02T01:50:18.176Z,6.11
2023-05-02T01:50:39.342Z,6.11
2023-05-02T01:51:06.543Z,6.11
2023-05-02T01:51:37.822Z,6.11
2023-05-02T01:52:09.503Z,6.11
2023-05-02T01:52:26.501Z,6.11
2023-05-02T01:52:57.628Z,6.11
2023-05-02T01:53:29.526Z,6.11
2023-05-02T01:53:46.738Z,6.27
2023-05-02T01:54:17.614Z,6.43
2023-05-02T01:54:39.086Z,6.43
2023-05-02T01:55:07.381Z,6.43
2023-05-02T01:55:37.728Z,6.43
2023-05-02T01:56:09.530Z,6.68
2023-05-02T01:56:36.379Z,6.92
2023-05-02T01:56:57.693Z,7.08
2023-05-02T01:57:29.459Z,7.08
2023-05-02T01:57:46.718Z,7.24
2023-05-02T01:58:17.659Z,7.24
2023-05-02T01:58:39.309Z,7.24
2023-05-02T01:59:06.514Z,7.24
2023-05-02T01:59:37.707Z,7.24
2023-05-02T02:00:10.894Z,7.24
2023-05-02T02:00:26.621Z,7.24
2023-05-02T02:00:58.091Z,7.24
2023-05-02T02:01:29.542Z,7.08
2023-05-02T02:01:46.758Z,6.92
2023-05-02T02:02:17.873Z,6.68
2023-05-02T02:02:39.090Z,6.27
2023-05-02T02:03:06.898Z,6.11
2023-05-02T02:03:37.946Z,6.11
2023-05-02T02:04:09.571Z,6.11
2023-05-02T02:04:26.430Z,6.11
2023-05-02T02:04:57.513Z,6.11
2023-05-02T02:05:29.884Z,6.11
2023-05-02T02:05:46.778Z,6.11
2023-05-02T02:06:17.660Z,6.27
2023-05-02T02:06:39.190Z,6.27
2023-05-02T02:07:06.395Z,6.27
2023-05-02T02:07:37.521Z,6.27
2023-05-02T02:08:10.139Z,6.27
2023-05-02T02:08:26.511Z,6.27
2023-05-02T02:08:57.725Z,6.43
2023-05-02T02:09:29.469Z,6.43
2023-05-02T02:09:47.057Z,6.43
2023-05-02T02:10:17.936Z,6.43
2023-05-02T02:10:38.838Z,6.43
2023-05-02T02:11:06.401Z,6.43
2023-05-02T02:11:37.654Z,6.43
2023-05-02T02:12:09.499Z,6.43
2023-05-02T02:12:26.401Z,6.27
2023-05-02T02:12:57.549Z,6.11
2023-05-02T02:13:29.465Z,5.95
2023-05-02T02:13:46.637Z,5.79
2023-05-02T02:14:17.807Z,5.79
2023-05-02T02:14:39.604Z,5.79
2023-05-02T02:15:07.738Z,5.63
2023-05-02T02:15:37.637Z,5.23
2023-05-02T02:16:09.546Z,4.82
2023-05-02T02:16:26.513Z,4.66
2023-05-02T02:16:57.636Z,4.34
2023-05-02T02:17:29.516Z,4.02
2023-05-02T02:17:46.684Z,4.02
2023-05-02T02:18:17.571Z,4.02
2023-05-02T02:18:38.956Z,4.02
2023-05-02T02:19:06.312Z,4.02
2023-05-02T02:19:37.564Z,4.02
2023-05-02T02:20:10.492Z,4.02
2023-05-02T02:20:36.381Z,4.02
2023-05-02T02:20:57.915Z,3.78
2023-05-02T02:21:29.499Z,3.78
2023-05-02T02:21:46.892Z,3.78
2023-05-02T02:22:18.107Z,3.78
2023-05-02T02:22:38.895Z,4.02
2023-05-02T02:23:06.620Z,4.02
2023-05-02T02:23:37.772Z,4.02
2023-05-02T02:24:09.593Z,4.02
2023-05-02T02:24:26.484Z,4.02
2023-05-02T02:24:57.617Z,4.02
2023-05-02T02:25:29.945Z,4.02
2023-05-02T02:25:46.891Z,4.18
2023-05-02T02:26:18.275Z,4.50
2023-05-02T02:26:38.802Z,4.82
2023-05-02T02:27:06.361Z,4.98
2023-05-02T02:27:37.872Z,5.23
2023-05-02T02:28:09.587Z,5.47
2023-05-02T02:28:26.578Z,5.63
2023-05-02T02:28:57.606Z,5.95
2023-05-02T02:29:29.508Z,6.11
2023-05-02T02:29:46.692Z,6.11
2023-05-02T02:30:18.732Z,6.11
2023-05-02T02:30:39.059Z,6.11
2023-05-02T02:31:06.482Z,6.27
2023-05-02T02:31:37.652Z,6.43
2023-05-02T02:32:09.554Z,6.43
2023-05-02T02:32:26.588Z,6.43
2023-05-02T02:32:57.776Z,6.43
2023-05-02T02:33:29.489Z,6.43
2023-05-02T02:33:46.562Z,6.43
2023-05-02T02:34:17.687Z,6.43
2023-05-02T02:34:38.895Z,6.43
2023-05-02T02:35:07.371Z,6.43
2023-05-02T02:35:37.686Z,6.43
2023-05-02T02:36:09.659Z,6.43
2023-05-02T02:36:26.403Z,6.43
2023-05-02T02:36:57.792Z,6.43
2023-05-02T02:37:29.547Z,6.43
2023-05-02T02:37:46.637Z,6.43
2023-05-02T02:38:17.748Z,6.43
2023-05-02T02:38:38.901Z,6.43
2023-05-02T02:39:06.471Z,6.43
2023-05-02T02:39:37.669Z,6.27
2023-05-02T02:40:09.982Z,5.95
2023-05-02T02:40:26.823Z,5.79
2023-05-02T02:40:58.254Z,5.79
2023-05-02T02:41:29.733Z,5.63
2023-05-02T02:41:46.706Z,5.47
2023-05-02T02:42:17.691Z,5.47
2023-05-02T02:42:39.056Z,5.47
2023-05-02T02:43:06.401Z,5.47
2023-05-02T02:43:37.564Z,5.47
2023-05-02T02:44:10.214Z,5.47
2023-05-02T02:44:27.780Z,5.47
2023-05-02T02:44:57.604Z,5.47
2023-05-02T02:45:30.871Z,5.47
2023-05-02T02:45:46.757Z,5.47
2023-05-02T02:46:17.784Z,5.47
2023-05-02T02:46:39.460Z,5.47
2023-05-02T02:47:06.444Z,5.47
2023-05-02T02:47:37.629Z,5.47
2023-05-02T02:48:09.840Z,5.47
2023-05-02T02:48:26.484Z,5.47
2023-05-02T02:48:57.734Z,5.47
2023-05-02T02:49:29.957Z,5.47
2023-05-02T02:49:47.131Z,5.47
2023-05-02T02:50:18.041Z,5.47
2023-05-02T02:50:38.911Z,5.47
2023-05-02T02:51:06.470Z,5.63
2023-05-02T02:51:37.740Z,5.79
2023-05-02T02:52:09.652Z,5.79
2023-05-02T02:52:26.426Z,5.79
2023-05-02T02:52:57.596Z,5.79
2023-05-02T02:53:29.437Z,5.79
2023-05-02T02:53:46.688Z,5.79
2023-05-02T02:54:26.464Z,5.79
2023-05-02T02:54:38.912Z,5.79
2023-05-02T02:55:07.355Z,5.79
2023-05-02T02:55:37.555Z,5.79
2023-05-02T02:56:09.533Z,5.63
2023-05-02T02:56:26.308Z,5.47
2023-05-02T02:56:57.565Z,5.47
2023-05-02T02:57:29.443Z,5.47
2023-05-02T02:57:46.739Z,5.47
2023-05-02T02:58:17.788Z,5.47
2023-05-02T02:58:38.844Z,5.47
2023-05-02T02:59:06.601Z,5.47
2023-05-02T02:59:37.684Z,5.47
2023-05-02T03:00:10.771Z,5.47
2023-05-02T03:00:26.872Z,5.47
2023-05-02T03:00:58.064Z,5.47
2023-05-02T03:01:29.540Z,5.47
2023-05-02T03:01:46.993Z,5.47
2023-05-02T03:02:17.662Z,5.47
2023-05-02T03:02:39.034Z,5.47
2023-05-02T03:03:06.405Z,5.47
2023-05-02T03:03:37.905Z,5.47
2023-05-02T03:04:09.653Z,5.47
2023-05-02T03:04:26.419Z,5.47
2023-05-02T03:04:57.643Z,5.47
2023-05-02T03:05:30.024Z,5.47
2023-05-02T03:05:46.615Z,5.63
2023-05-02T03:06:18.026Z,5.63
2023-05-02T03:06:39.497Z,5.63
2023-05-02T03:07:06.365Z,5.63
2023-05-02T03:07:37.560Z,5.95
2023-05-02T03:08:09.538Z,6.11
2023-05-02T03:08:26.421Z,6.11
2023-05-02T03:08:57.638Z,6.27
2023-05-02T03:09:29.643Z,6.43
2023-05-02T03:09:46.616Z,6.43
2023-05-02T03:10:17.964Z,6.68
2023-05-02T03:10:38.996Z,6.92
2023-05-02T03:11:06.631Z,7.08
2023-05-02T03:11:37.545Z,7.24
2023-05-02T03:12:10.044Z,7.24
2023-05-02T03:12:36.407Z,7.24
2023-05-02T03:12:57.681Z,7.24
2023-05-02T03:13:29.561Z,7.24
2023-05-02T03:13:46.620Z,7.24
2023-05-02T03:14:17.665Z,7.24
2023-05-02T03:14:39.060Z,7.08
2023-05-02T03:15:07.901Z,6.92
2023-05-02T03:15:37.882Z,6.92
2023-05-02T03:16:09.659Z,6.68
2023-05-02T03:16:26.761Z,6.43
2023-05-02T03:16:57.601Z,6.43
2023-05-02T03:17:29.715Z,6.27
2023-05-02T03:17:47.089Z,6.11
2023-05-02T03:18:17.894Z,6.11
2023-05-02T03:18:38.932Z,5.95
2023-05-02T03:19:06.409Z,5.79
2023-05-02T03:19:37.610Z,5.63
2023-05-02T03:20:10.070Z,5.63
2023-05-02T03:20:26.582Z,5.63
2023-05-02T03:20:58.059Z,5.63
2023-05-02T03:21:29.631Z,5.63
2023-05-02T03:21:47.366Z,5.63
2023-05-02T03:22:17.887Z,5.63
2023-05-02T03:22:39.049Z,5.63
2023-05-02T03:23:06.636Z,5.63
2023-05-02T03:23:37.610Z,5.95
2023-05-02T03:24:09.562Z,6.11
2023-05-02T03:24:26.576Z,6.11
2023-05-02T03:24:57.632Z,6.11
2023-05-02T03:25:29.981Z,6.11
2023-05-02T03:25:46.661Z,6.11
2023-05-02T03:26:17.716Z,6.11
2023-05-02T03:26:38.953Z,6.11
2023-05-02T03:27:06.464Z,6.11
2023-05-02T03:27:37.643Z,6.11
2023-05-02T03:28:09.569Z,6.11
2023-05-02T03:28:26.544Z,6.11
2023-05-02T03:28:57.672Z,6.11
2023-05-02T03:29:29.592Z,6.11
2023-05-02T03:29:46.777Z,5.95
2023-05-02T03:30:18.622Z,5.63
2023-05-02T03:30:38.967Z,5.63
2023-05-02T03:31:06.564Z,5.47
2023-05-02T03:31:37.667Z,5.47
2023-05-02T03:32:09.750Z,5.47
2023-05-02T03:32:26.514Z,5.47
2023-05-02T03:32:58.141Z,5.47
2023-05-02T03:33:29.611Z,5.47
2023-05-02T03:33:46.598Z,5.47
2023-05-02T03:34:17.674Z,5.47
2023-05-02T03:34:38.878Z,5.47
2023-05-02T03:35:07.804Z,5.47
2023-05-02T03:35:37.821Z,5.47
2023-05-02T03:36:10.557Z,5.47
2023-05-02T03:36:26.564Z,5.47
2023-05-02T03:36:58.111Z,5.47
2023-05-02T03:37:29.990Z,5.47
2023-05-02T03:37:46.696Z,5.47
2023-05-02T03:38:17.837Z,5.47
2023-05-02T03:38:38.911Z,5.47
2023-05-02T03:39:06.385Z,5.47
2023-05-02T03:39:38.047Z,5.47
2023-05-02T03:40:10.131Z,5.47
2023-05-02T03:40:26.595Z,5.47
2023-05-02T03:40:58.581Z,5.47
2023-05-02T03:41:29.493Z,5.47
2023-05-02T03:41:46.732Z,5.47
2023-05-02T03:42:17.651Z,5.47
2023-05-02T03:42:38.875Z,5.47
2023-05-02T03:43:06.409Z,5.47
2023-05-02T03:43:37.677Z,5.47
2023-05-02T03:44:09.958Z,5.47
2023-05-02T03:44:37.269Z,5.47
2023-05-02T03:44:57.852Z,5.47
2023-05-02T03:45:30.413Z,5.47
2023-05-02T03:45:48.647Z,5.47
2023-05-02T03:46:17.888Z,5.47
2023-05-02T03:46:38.951Z,5.47
2023-05-02T03:47:06.812Z,5.47
2023-05-02T03:47:37.752Z,5.47
2023-05-02T03:48:09.889Z,5.47
2023-05-02T03:48:26.811Z,5.47
2023-05-02T03:48:57.720Z,5.47
2023-05-02T03:49:29.840Z,5.47
2023-05-02T03:49:46.931Z,5.47
2023-05-02T03:50:18.435Z,5.47
2023-05-02T03:50:38.924Z,5.47
2023-05-02T03:51:06.538Z,5.47
2023-05-02T03:51:37.688Z,5.47
2023-05-02T03:52:09.701Z,5.47
2023-05-02T03:52:26.795Z,5.47
2023-05-02T03:52:57.881Z,5.47
2023-05-02T03:53:29.866Z,5.47
2023-05-02T03:53:47.513Z,5.47
2023-05-02T03:54:19.233Z,5.47
2023-05-02T03:54:39.564Z,5.47
2023-05-02T03:55:07.683Z,5.47
2023-05-02T03:55:37.827Z,5.23
2023-05-02T03:56:09.822Z,4.82
2023-05-02T03:56:26.644Z,4.66
2023-05-02T03:56:57.958Z,4.66
2023-05-02T03:57:29.673Z,4.66
2023-05-02T03:57:46.886Z,4.66
2023-05-02T03:58:17.885Z,4.50
2023-05-02T03:58:39.143Z,4.34
2023-05-02T03:59:07.268Z,4.34
2023-05-02T03:59:37.818Z,4.34
2023-05-02T04:00:11.031Z,4.34
2023-05-02T04:00:27.017Z,4.34
2023-05-02T04:00:58.324Z,4.34
2023-05-02T04:01:29.836Z,4.34
2023-05-02T04:01:46.858Z,4.34
2023-05-02T04:02:18.557Z,4.34
2023-05-02T04:02:39.819Z,4.34
2023-05-02T04:03:06.664Z,4.50
2023-05-02T04:03:37.911Z,4.66
2023-05-02T04:04:10.870Z,4.66
2023-05-02T04:04:36.929Z,4.66
2023-05-02T04:04:57.872Z,4.66
2023-05-02T04:05:30.186Z,4.66
2023-05-02T04:05:46.963Z,4.66
2023-05-02T04:06:17.902Z,4.66
2023-05-02T04:06:39.769Z,4.66
2023-05-02T04:07:06.732Z,4.66
2023-05-02T04:07:37.745Z,4.66
2023-05-02T04:08:09.635Z,4.66
2023-05-02T04:08:26.663Z,4.66
2023-05-02T04:08:58.067Z,4.66
2023-05-02T04:09:29.906Z,4.66
2023-05-02T04:09:46.900Z,4.66
2023-05-02T04:10:18.377Z,4.66
2023-05-02T04:10:38.984Z,4.66
2023-05-02T04:11:06.576Z,4.66
2023-05-02T04:11:37.965Z,4.66
2023-05-02T04:12:09.785Z,4.66
2023-05-02T04:12:26.864Z,4.66
2023-05-02T04:12:57.804Z,4.66
2023-05-02T04:13:29.746Z,4.66
2023-05-02T04:13:47.224Z,4.66
2023-05-02T04:14:17.966Z,4.66
2023-05-02T04:14:39.168Z,4.66
2023-05-02T04:15:08.032Z,4.66
2023-05-02T04:15:37.855Z,4.66
2023-05-02T04:16:09.758Z,4.82
2023-05-02T04:16:26.796Z,4.82
2023-05-02T04:16:57.834Z,5.23
2023-05-02T04:17:29.835Z,5.47
2023-05-02T04:17:47.087Z,5.47
2023-05-02T04:18:18.473Z,5.47
2023-05-02T04:18:39.146Z,5.47
2023-05-02T04:19:06.731Z,5.47
2023-05-02T04:19:37.876Z,5.47
2023-05-02T04:20:10.312Z,5.47
2023-05-02T04:20:26.830Z,5.47
2023-05-02T04:20:58.350Z,5.47
2023-05-02T04:21:29.702Z,5.47
2023-05-02T04:21:47.072Z,5.47
2023-05-02T04:22:18.080Z,5.47
2023-05-02T04:22:39.093Z,5.47
2023-05-02T04:23:06.722Z,5.47
2023-05-02T04:23:37.961Z,5.47
2023-05-02T04:24:09.716Z,5.47
2023-05-02T04:24:26.738Z,5.47
2023-05-02T04:24:58.088Z,5.47
2023-05-02T04:25:30.208Z,5.47
2023-05-02T04:25:46.904Z,5.47
2023-05-02T04:26:17.954Z,5.47
2023-05-02T04:26:39.046Z,5.47
2023-05-02T04:27:06.757Z,5.47
2023-05-02T04:27:37.892Z,5.47
2023-05-02T04:28:09.941Z,5.47
2023-05-02T04:28:38.362Z,5.47
2023-05-02T04:28:57.972Z,5.47
2023-05-02T04:29:29.921Z,5.47
2023-05-02T04:29:47.420Z,5.47
2023-05-02T04:30:19.570Z,5.47
2023-05-02T04:30:39.497Z,5.47
2023-05-02T04:31:06.724Z,5.23
2023-05-02T04:31:38.283Z,4.98
2023-05-02T04:32:09.829Z,4.82
2023-05-02T04:32:26.746Z,4.34
2023-05-02T04:32:58.071Z,4.02
2023-05-02T04:33:29.728Z,3.78
2023-05-02T04:33:46.933Z,3.54
2023-05-02T04:34:17.891Z,3.54
2023-05-02T04:34:39.932Z,3.54
2023-05-02T04:35:07.643Z,3.54
2023-05-02T04:35:38.099Z,3.54
2023-05-02T04:36:09.748Z,3.54
2023-05-02T04:36:26.764Z,3.54
2023-05-02T04:36:57.863Z,3.54
2023-05-02T04:37:29.671Z,3.54
2023-05-02T04:37:46.993Z,3.54
2023-05-02T04:38:17.824Z,3.54
2023-05-02T04:38:39.158Z,3.54
2023-05-02T04:39:06.763Z,3.54
2023-05-02T04:39:37.799Z,3.54
2023-05-02T04:40:10.430Z,3.54
2023-05-02T04:40:26.638Z,3.54
2023-05-02T04:40:58.351Z,3.54
2023-05-02T04:41:29.762Z,3.54
2023-05-02T04:41:47.544Z,3.54
2023-05-02T04:42:18.132Z,3.54
2023-05-02T04:42:39.281Z,3.78
2023-05-02T04:43:06.765Z,3.78
2023-05-02T04:43:37.971Z,3.78
2023-05-02T04:44:10.685Z,3.54
2023-05-02T04:44:26.836Z,3.78
2023-05-02T04:44:57.873Z,3.54
2023-05-02T04:45:30.511Z,3.54
2023-05-02T04:45:47.527Z,3.54
2023-05-02T04:46:17.928Z,3.54
2023-05-02T04:46:39.932Z,3.54
2023-05-02T04:47:06.759Z,3.54
2023-05-02T04:47:37.975Z,3.54
2023-05-02T04:48:09.801Z,3.54
2023-05-02T04:48:26.752Z,3.54
2023-05-02T04:48:57.865Z,3.54
2023-05-02T04:49:29.969Z,3.54
2023-05-02T04:49:47.345Z,3.78
2023-05-02T04:50:18.447Z,3.78
2023-05-02T04:50:39.666Z,3.78
2023-05-02T04:51:06.633Z,3.54
2023-05-02T04:51:37.778Z,3.54
2023-05-02T04:52:09.813Z,3.54
2023-05-02T04:52:26.738Z,3.54
2023-05-02T04:52:58.039Z,3.54
2023-05-02T04:53:29.643Z,3.54
2023-05-02T04:53:47.670Z,3.54
2023-05-02T04:54:18.256Z,3.54
2023-05-02T04:54:39.197Z,3.54
2023-05-02T04:55:07.520Z,3.54
2023-05-02T04:55:37.893Z,3.54
2023-05-02T04:56:10.390Z,3.54
2023-05-02T04:56:36.654Z,3.54
2023-05-02T04:56:57.816Z,3.54
2023-05-02T04:57:29.895Z,3.54
2023-05-02T04:57:46.583Z,3.54
2023-05-02T04:58:18.087Z,3.54
2023-05-02T04:58:39.612Z,3.54
2023-05-02T04:59:06.627Z,3.54
2023-05-02T04:59:37.794Z,3.54
2023-05-02T05:00:11.102Z,3.54
2023-05-02T05:00:26.955Z,3.38
2023-05-02T05:00:58.340Z,3.05
2023-05-02T05:01:29.952Z,2.89
2023-05-02T05:01:46.920Z,2.89
2023-05-02T05:02:18.028Z,2.49
2023-05-02T05:02:39.356Z,2.09
2023-05-02T05:03:06.710Z,1.93
2023-05-02T05:03:38.264Z,1.77
2023-05-02T05:04:09.919Z,1.77
2023-05-02T05:04:26.666Z,1.77
2023-05-02T05:04:58.035Z,1.77
2023-05-02T05:05:30.282Z,1.77
2023-05-02T05:05:47.044Z,1.77
2023-05-02T05:06:17.885Z,1.77
2023-05-02T05:06:39.101Z,1.77
2023-05-02T05:07:06.737Z,1.77
2023-05-02T05:07:37.963Z,1.77
2023-05-02T05:08:09.764Z,1.77
2023-05-02T05:08:26.780Z,1.77
2023-05-02T05:08:58.341Z,1.77
2023-05-02T05:09:31.063Z,1.77
2023-05-02T05:09:46.974Z,1.77
2023-05-02T05:10:18.651Z,1.77
2023-05-02T05:10:39.832Z,1.77
2023-05-02T05:11:06.683Z,1.93
2023-05-02T05:11:37.814Z,1.93
2023-05-02T05:12:10.240Z,1.93
2023-05-02T05:12:26.753Z,1.93
2023-05-02T05:12:59.259Z,1.93
2023-05-02T05:13:29.743Z,1.77
2023-05-02T05:14:02.084Z,1.77
2023-05-02T05:14:33.825Z,1.77
2023-05-02T05:15:08.002Z,1.77
2023-05-02T05:15:37.840Z,1.77
2023-05-02T05:16:09.867Z,1.77
2023-05-02T05:16:26.770Z,1.93
2023-05-02T05:16:58.210Z,2.33
2023-05-02T05:17:29.768Z,2.33
2023-05-02T05:17:47.145Z,2.57
2023-05-02T05:18:18.050Z,2.57
2023-05-02T05:18:39.108Z,2.33
2023-05-02T05:19:06.771Z,2.33
2023-05-02T05:19:37.977Z,2.73
2023-05-02T05:20:10.383Z,2.89
2023-05-02T05:20:26.793Z,2.89
2023-05-02T05:20:58.199Z,2.89
2023-05-02T05:21:29.654Z,2.89
2023-05-02T05:21:47.020Z,2.89
2023-05-02T05:22:17.850Z,3.05
2023-05-02T05:22:39.630Z,3.05
2023-05-02T05:23:06.611Z,3.21
2023-05-02T05:23:37.791Z,3.21
2023-05-02T05:24:09.902Z,3.21
2023-05-02T05:24:26.942Z,3.21
2023-05-02T05:24:57.928Z,3.21
2023-05-02T05:25:30.574Z,3.21
2023-05-02T05:25:46.876Z,3.05
2023-05-02T05:26:17.939Z,2.89
2023-05-02T05:26:39.113Z,2.89
2023-05-02T05:27:07.278Z,2.89
2023-05-02T05:27:38.274Z,2.89
2023-05-02T05:28:09.789Z,2.89
2023-05-02T05:28:26.726Z,2.73
2023-05-02T05:28:57.855Z,2.33
2023-05-02T05:29:29.795Z,2.33
2023-05-02T05:29:47.188Z,2.09
2023-05-02T05:30:18.909Z,2.09
2023-05-02T05:30:39.173Z,2.09
2023-05-02T05:31:06.750Z,2.09
2023-05-02T05:31:37.988Z,1.93
2023-05-02T05:32:10.731Z,1.77
2023-05-02T05:32:26.709Z,1.77
2023-05-02T05:32:57.901Z,1.77
2023-05-02T05:33:29.675Z,1.77
2023-05-02T05:33:46.928Z,1.77
2023-05-02T05:34:18.207Z,1.77
2023-05-02T05:34:39.214Z,1.77
2023-05-02T05:35:07.731Z,1.77
2023-05-02T05:35:37.851Z,1.77
2023-05-02T05:36:10.340Z,1.77
2023-05-02T05:36:26.739Z,1.77
2023-05-02T05:36:57.867Z,1.77
2023-05-02T05:37:29.855Z,1.77
2023-05-02T05:37:46.760Z,1.77
2023-05-02T05:38:17.861Z,1.77
2023-05-02T05:38:39.874Z,1.77
2023-05-02T05:39:06.671Z,1.77
2023-05-02T05:39:37.901Z,1.77
2023-05-02T05:40:10.630Z,1.77
2023-05-02T05:40:26.796Z,1.77
2023-05-02T05:40:58.271Z,1.77
2023-05-02T05:41:29.674Z,1.77
2023-05-02T05:41:47.155Z,1.77
2023-05-02T05:42:18.394Z,1.77
2023-05-02T05:42:39.293Z,1.77
2023-05-02T05:43:06.630Z,1.77
2023-05-02T05:43:38.286Z,1.77
2023-05-02T05:44:09.848Z,1.77
2023-05-02T05:44:26.704Z,1.93
2023-05-02T05:44:57.872Z,2.09
2023-05-02T05:45:30.652Z,2.09
2023-05-02T05:45:47.151Z,2.09
2023-05-02T05:46:17.936Z,2.09
2023-05-02T05:46:39.334Z,2.09
2023-05-02T05:47:06.683Z,2.09
2023-05-02T05:47:38.089Z,2.09
2023-05-02T05:48:10.418Z,2.09
2023-05-02T05:48:36.705Z,2.09
2023-05-02T05:48:57.957Z,2.09
2023-05-02T05:49:29.621Z,1.93
2023-05-02T05:49:46.908Z,1.77
2023-05-02T05:50:18.790Z,1.77
2023-05-02T05:50:39.181Z,1.93
2023-05-02T05:51:06.675Z,1.93
2023-05-02T05:51:38.059Z,1.93
2023-05-02T05:52:10.266Z,1.93
2023-05-02T05:52:26.703Z,1.93
2023-05-02T05:52:57.909Z,2.09
2023-05-02T05:53:29.691Z,2.09
2023-05-02T05:53:46.990Z,2.09
2023-05-02T05:54:17.941Z,2.49
2023-05-02T05:54:40.886Z,2.89
2023-05-02T05:55:07.797Z,3.05
2023-05-02T05:55:38.730Z,3.05
2023-05-02T05:56:10.226Z,3.05
2023-05-02T05:56:26.750Z,3.21
2023-05-02T05:56:57.959Z,3.21
2023-05-02T05:57:29.734Z,3.21
2023-05-02T05:57:46.870Z,3.38
2023-05-02T05:58:17.916Z,3.54
2023-05-02T05:58:39.133Z,3.54
2023-05-02T05:59:06.851Z,3.54
2023-05-02T05:59:37.808Z,3.54
2023-05-02T06:00:11.120Z,3.54
2023-05-02T06:00:26.999Z,3.54
2023-05-02T06:00:58.399Z,3.78
2023-05-02T06:01:29.774Z,4.18
2023-05-02T06:01:47.049Z,4.34
2023-05-02T06:02:17.949Z,4.34
2023-05-02T06:02:39.335Z,4.34
2023-05-02T06:03:08.873Z,4.34
2023-05-02T06:03:38.075Z,4.50
2023-05-02T06:04:10.004Z,4.50
2023-05-02T06:04:27.035Z,4.50